createdAt,value
2024-03-16T00:02:01.647Z,11.30
2024-03-16T00:04:34.293Z,11.26
2024-03-16T00:07:04.973Z,11.24
2024-03-16T00:09:34.979Z,11.23
2024-03-16T00:12:05.698Z,11.25
2024-03-16T00:14:35.868Z,11.23
2024-03-16T00:17:06.427Z,10.95
2024-03-16T00:19:39.058Z,11.05
2024-03-16T00:22:10.681Z,11.02
2024-03-16T00:24:40.665Z,10.93
2024-03-16T00:27:11.525Z,10.99
2024-03-16T00:29:41.368Z,11.05
2024-03-16T00:32:11.756Z,11.10
2024-03-16T00:34:44.377Z,11.17
2024-03-16T00:37:14.508Z,11.23
2024-03-16T00:39:44.372Z,11.32
2024-03-16T00:42:14.429Z,11.39
2024-03-16T00:44:44.255Z,11.35
2024-03-16T00:47:14.994Z,11.36
2024-03-16T00:49:47.521Z,11.27
2024-03-16T00:52:17.797Z,11.26
2024-03-16T00:54:48.151Z,11.19
2024-03-16T00:57:18.199Z,11.23
2024-03-16T00:59:48.051Z,10.98
2024-03-16T01:02:19.223Z,11.05
2024-03-16T01:04:51.705Z,11.15
2024-03-16T01:07:21.903Z,11.23
2024-03-16T01:09:52.265Z,11.22
2024-03-16T01:12:22.260Z,11.18
2024-03-16T01:14:52.146Z,11.28
2024-03-16T01:17:22.549Z,11.26
2024-03-16T01:19:56.167Z,11.25
2024-03-16T01:22:26.023Z,11.29
2024-03-16T01:24:56.242Z,11.31
2024-03-16T01:27:26.347Z,11.23
2024-03-16T01:29:56.259Z,11.21
2024-03-16T01:32:26.254Z,11.22
2024-03-16T01:34:59.102Z,10.94
2024-03-16T01:37:31.120Z,11.11
2024-03-16T01:40:01.964Z,11.02
2024-03-16T01:42:32.131Z,10.99
2024-03-16T01:45:11.440Z,10.93
2024-03-16T01:47:41.931Z,11.00
2024-03-16T01:50:14.606Z,11.08
2024-03-16T01:52:44.460Z,11.07
2024-03-16T01:55:14.935Z,11.20
2024-03-16T01:57:44.983Z,11.26
2024-03-16T02:00:16.587Z,11.22
2024-03-16T02:02:46.509Z,11.31
2024-03-16T02:05:18.935Z,11.36
2024-03-16T02:07:49.123Z,11.34
2024-03-16T02:10:19.484Z,11.31
2024-03-16T02:12:50.258Z,11.22
2024-03-16T02:15:20.912Z,11.28
2024-03-16T02:17:51.812Z,11.31
2024-03-16T02:20:25.294Z,11.30
2024-03-16T02:22:57.763Z,11.21
2024-03-16T02:25:27.796Z,11.06
2024-03-16T02:27:58.041Z,11.09
2024-03-16T02:30:27.996Z,11.15
2024-03-16T02:32:58.053Z,11.18
2024-03-16T02:35:28.328Z,11.10
2024-03-16T02:38:00.842Z,11.11
2024-03-16T02:40:30.719Z,11.09
2024-03-16T02:43:01.184Z,11.08
2024-03-16T02:45:31.123Z,11.17
2024-03-16T02:48:01.664Z,11.11
2024-03-16T02:50:31.656Z,11.13
2024-03-16T02:53:05.112Z,11.14
2024-03-16T02:55:35.171Z,11.10
2024-03-16T02:58:06.260Z,11.12
2024-03-16T03:00:36.546Z,11.13
2024-03-16T03:03:08.434Z,11.07
2024-03-16T03:05:38.429Z,11.09
2024-03-16T03:08:11.561Z,11.16
2024-03-16T03:10:42.767Z,11.09
2024-03-16T03:13:12.764Z,11.14
2024-03-16T03:15:43.111Z,10.90
2024-03-16T03:18:13.082Z,11.05
2024-03-16T03:20:42.914Z,11.03
2024-03-16T03:23:15.410Z,11.03
2024-03-16T03:25:46.303Z,11.05
2024-03-16T03:28:16.436Z,11.00
2024-03-16T03:30:46.596Z,11.01
2024-03-16T03:33:16.696Z,10.96
2024-03-16T03:35:46.528Z,11.08
2024-03-16T03:38:19.184Z,11.09
2024-03-16T03:40:49.220Z,11.10
2024-03-16T03:43:23.222Z,11.06
2024-03-16T03:45:56.494Z,11.06
2024-03-16T03:48:37.334Z,11.10
2024-03-16T03:51:07.923Z,11.08
2024-03-16T03:53:40.575Z,10.94
2024-03-16T03:56:10.602Z,11.12
2024-03-16T03:58:40.467Z,11.13
2024-03-16T04:01:10.394Z,11.12
2024-03-16T04:03:40.736Z,11.09
2024-03-16T04:06:10.790Z,11.09
2024-03-16T04:08:43.264Z,11.13
2024-03-16T04:11:13.422Z,11.01
2024-03-16T04:13:43.252Z,11.01
2024-03-16T04:16:16.132Z,11.13
2024-03-16T04:18:46.244Z,11.11
2024-03-16T04:21:17.254Z,11.12
2024-03-16T04:23:50.709Z,11.14
2024-03-16T04:26:20.525Z,11.17
2024-03-16T04:28:51.401Z,11.16
2024-03-16T04:31:21.235Z,11.14
2024-03-16T04:33:52.663Z,11.09
2024-03-16T04:36:24.179Z,11.20
2024-03-16T04:38:56.836Z,11.11
2024-03-16T04:41:26.910Z,11.14
2024-03-16T04:43:57.135Z,11.04
2024-03-16T04:46:30.223Z,11.19
2024-03-16T04:49:01.314Z,11.13
2024-03-16T04:51:31.569Z,11.10
2024-03-16T04:54:04.905Z,11.03
2024-03-16T04:56:35.014Z,10.95
2024-03-16T04:59:04.971Z,11.03
2024-03-16T05:01:34.935Z,11.03
2024-03-16T05:04:05.178Z,11.12
2024-03-16T05:06:35.562Z,11.10
2024-03-16T05:09:10.762Z,11.03
2024-03-16T05:11:41.215Z,10.98
2024-03-16T05:14:11.375Z,10.86
2024-03-16T05:16:43.022Z,10.83
2024-03-16T05:19:13.120Z,10.88
2024-03-16T05:21:43.850Z,10.79
2024-03-16T05:24:16.607Z,10.72
2024-03-16T05:26:46.864Z,10.61
2024-03-16T05:29:16.930Z,10.70
2024-03-16T05:32:00.734Z,10.72
2024-03-16T05:34:30.667Z,10.71
2024-03-16T05:37:00.788Z,10.82
2024-03-16T05:39:33.537Z,10.87
2024-03-16T05:42:05.179Z,10.92
2024-03-16T05:44:36.815Z,10.99
2024-03-16T05:47:08.267Z,10.99
2024-03-16T05:49:40.810Z,11.00
2024-03-16T05:52:10.974Z,11.04
2024-03-16T05:54:43.623Z,11.05
2024-03-16T05:57:13.675Z,11.06
2024-03-16T05:59:43.545Z,11.02
2024-03-16T06:02:13.588Z,11.08
2024-03-16T06:04:43.606Z,11.02
2024-03-16T06:07:13.756Z,10.90
2024-03-16T06:09:49.929Z,10.66
2024-03-16T06:12:19.849Z,10.50
2024-03-16T06:14:52.197Z,10.46
2024-03-16T06:17:22.512Z,10.43
2024-03-16T06:19:55.143Z,10.39
2024-03-16T06:22:25.904Z,10.39
2024-03-16T06:25:00.880Z,10.39
2024-03-16T06:27:30.780Z,10.46
2024-03-16T06:30:02.470Z,10.47
2024-03-16T06:32:35.710Z,10.47
2024-03-16T06:35:05.686Z,10.50
2024-03-16T06:37:38.281Z,10.52
2024-03-16T06:40:12.393Z,10.55
2024-03-16T06:42:42.310Z,10.58
2024-03-16T06:45:12.898Z,10.64
2024-03-16T06:47:43.016Z,10.69
2024-03-16T06:50:14.354Z,10.62
2024-03-16T06:52:44.273Z,10.76
2024-03-16T06:55:19.499Z,10.68
2024-03-16T06:57:50.148Z,10.82
2024-03-16T07:00:20.262Z,10.91
2024-03-16T07:02:50.121Z,10.97
2024-03-16T07:05:19.893Z,11.07
2024-03-16T07:07:49.951Z,10.96
2024-03-16T07:10:22.372Z,10.98
2024-03-16T07:12:52.480Z,10.94
2024-03-16T07:15:22.649Z,11.01
2024-03-16T07:17:52.631Z,11.15
2024-03-16T07:20:22.528Z,11.12
2024-03-16T07:22:55.319Z,11.07
2024-03-16T07:25:28.545Z,10.97
2024-03-16T07:27:58.417Z,11.11
2024-03-16T07:30:28.688Z,11.14
2024-03-16T07:32:58.662Z,11.13
2024-03-16T07:35:29.359Z,10.94
2024-03-16T07:37:59.594Z,10.95
2024-03-16T07:40:33.197Z,10.92
2024-03-16T07:43:03.702Z,10.83
2024-03-16T07:45:34.191Z,10.76
2024-03-16T07:48:04.314Z,10.66
2024-03-16T07:50:34.485Z,10.64
2024-03-16T07:53:04.719Z,10.50
2024-03-16T07:55:37.544Z,10.32
2024-03-16T07:58:09.300Z,10.04
2024-03-16T08:00:41.255Z,9.81
2024-03-16T08:03:11.160Z,9.71
2024-03-16T08:05:41.812Z,9.62
2024-03-16T08:08:11.711Z,9.50
2024-03-16T08:10:44.209Z,9.44
2024-03-16T08:13:14.165Z,9.45
2024-03-16T08:15:44.123Z,9.37
2024-03-16T08:18:14.131Z,9.28
2024-03-16T08:20:44.102Z,9.19
2024-03-16T08:23:14.012Z,9.10
2024-03-16T08:25:48.180Z,9.13
2024-03-16T08:28:18.594Z,9.14
2024-03-16T08:30:48.523Z,9.26
2024-03-16T08:33:18.465Z,9.26
2024-03-16T08:35:48.709Z,9.20
2024-03-16T08:38:18.588Z,9.23
2024-03-16T08:40:51.125Z,9.26
2024-03-16T08:43:21.456Z,9.27
2024-03-16T08:45:51.355Z,9.16
2024-03-16T08:48:21.267Z,9.23
2024-03-16T08:50:51.177Z,9.25
2024-03-16T08:53:21.421Z,9.31
2024-03-16T08:55:58.077Z,9.43
2024-03-16T08:58:28.563Z,9.50
2024-03-16T09:00:59.888Z,9.50
2024-03-16T09:03:30.031Z,9.70
2024-03-16T09:06:00.351Z,9.79
2024-03-16T09:08:31.293Z,9.78
2024-03-16T09:11:03.803Z,9.86
2024-03-16T09:13:35.197Z,9.82
2024-03-16T09:16:07.559Z,9.71
2024-03-16T09:18:38.107Z,9.69
2024-03-16T09:21:09.500Z,9.47
2024-03-16T09:23:39.393Z,9.40
2024-03-16T09:26:11.947Z,8.95
2024-03-16T09:28:41.755Z,8.44
2024-03-16T09:31:11.848Z,8.32
2024-03-16T09:33:41.966Z,8.23
2024-03-16T09:36:12.231Z,8.17
2024-03-16T09:38:42.259Z,8.23
2024-03-16T09:41:21.786Z,8.25
